createdAt,value
2019-01-10T00:00:12.486Z,1.65
2019-01-10T00:02:43.147Z,1.34
2019-01-10T00:05:17.261Z,1.11
2019-01-10T00:07:57.654Z,1.26
2019-01-10T00:10:36.565Z,1.58
2019-01-10T00:13:11.896Z,1.16
2019-01-10T00:15:40.981Z,1.34
2019-01-10T00:18:10.065Z,1.29
2019-01-10T00:20:39.177Z,1.67
2019-01-10T00:23:09.825Z,1.75
2019-01-10T00:25:38.921Z,1.42
2019-01-10T00:28:10.836Z,1.40
2019-01-10T00:30:40.519Z,1.32
2019-01-10T00:33:09.613Z,1.54
2019-01-10T00:35:38.724Z,-0.79
2019-01-10T00:38:10.646Z,1.67
2019-01-10T00:40:39.739Z,1.67
2019-01-10T00:43:10.417Z,1.45
2019-01-10T00:45:39.531Z,-0.64
2019-01-10T00:48:08.601Z,1.52
2019-01-10T00:50:38.067Z,1.94
2019-01-10T00:53:07.144Z,1.83
2019-01-10T00:55:40.460Z,1.44
2019-01-10T00:58:12.588Z,1.36
2019-01-10T01:00:44.480Z,1.16
2019-01-10T01:03:16.006Z,1.18
2019-01-10T01:05:46.565Z,1.65
2019-01-10T01:08:17.399Z,1.55
2019-01-10T01:10:49.477Z,1.60
2019-01-10T01:13:21.532Z,0.94
2019-01-10T01:15:52.143Z,1.11
2019-01-10T01:18:21.310Z,1.61
2019-01-10T01:20:54.077Z,1.26
2019-01-10T01:23:35.392Z,1.26
2019-01-10T01:26:04.521Z,1.19
2019-01-10T01:28:33.592Z,1.67
2019-01-10T01:31:02.689Z,1.92
2019-01-10T01:33:33.047Z,2.03
2019-01-10T01:36:03.254Z,1.44
2019-01-10T01:38:32.330Z,1.56
2019-01-10T01:41:03.927Z,1.47
2019-01-10T01:43:34.442Z,1.96
2019-01-10T01:46:07.779Z,1.82
2019-01-10T01:48:40.513Z,2.35
2019-01-10T01:51:12.000Z,2.25
2019-01-10T01:53:42.848Z,2.39
2019-01-10T01:56:17.275Z,1.82
2019-01-10T01:58:46.351Z,1.57
2019-01-10T02:01:15.451Z,1.25
2019-01-10T02:03:44.570Z,1.67
2019-01-10T02:06:15.314Z,1.67
2019-01-10T02:08:49.612Z,1.69
2019-01-10T02:11:20.184Z,2.06
2019-01-10T02:13:50.945Z,1.68
2019-01-10T02:16:20.024Z,1.42
2019-01-10T02:18:49.250Z,1.57
2019-01-10T02:21:20.192Z,1.13
2019-01-10T02:23:50.782Z,1.64
2019-01-10T02:26:19.942Z,1.84
2019-01-10T02:28:49.050Z,1.73
2019-01-10T02:31:18.147Z,2.16
2019-01-10T02:33:47.242Z,2.42
2019-01-10T02:36:16.346Z,2.26
2019-01-10T02:38:49.627Z,2.57
2019-01-10T02:41:18.722Z,2.35
2019-01-10T02:43:47.793Z,1.84
2019-01-10T02:46:19.500Z,1.54
2019-01-10T02:48:48.981Z,1.62
2019-01-10T02:51:18.430Z,1.59
2019-01-10T02:53:48.889Z,1.64
2019-01-10T02:56:18.049Z,1.79
2019-01-10T02:58:48.712Z,1.71
2019-01-10T03:01:17.798Z,1.92
2019-01-10T03:03:46.881Z,1.60
2019-01-10T03:06:16.003Z,2.06
2019-01-10T03:08:46.148Z,2.17
2019-01-10T03:11:16.249Z,2.47
2019-01-10T03:13:46.676Z,2.09
2019-01-10T03:16:17.902Z,1.90
2019-01-10T03:18:53.453Z,1.81
2019-01-10T03:21:24.203Z,1.95
2019-01-10T03:23:56.067Z,1.89
2019-01-10T03:26:31.119Z,2.33
2019-01-10T03:29:05.460Z,1.84
2019-01-10T03:31:34.702Z,1.90
2019-01-10T03:34:05.446Z,2.20
2019-01-10T03:36:37.503Z,2.36
2019-01-10T03:39:09.249Z,2.74
2019-01-10T03:41:42.194Z,2.34
2019-01-10T03:44:13.168Z,1.86
2019-01-10T03:46:43.687Z,1.93
2019-01-10T03:49:23.008Z,1.56
2019-01-10T03:51:53.456Z,2.21
2019-01-10T03:54:29.520Z,2.19
2019-01-10T03:56:58.629Z,1.91
2019-01-10T03:59:29.439Z,1.87
2019-01-10T04:01:58.523Z,1.65
2019-01-10T04:04:28.694Z,2.05
2019-01-10T04:06:57.787Z,1.97
2019-01-10T04:09:27.315Z,1.79
2019-01-10T04:11:56.464Z,2.43
2019-01-10T04:14:25.901Z,2.38
2019-01-10T04:16:59.175Z,2.52
2019-01-10T04:19:35.412Z,0.84
2019-01-10T04:22:04.533Z,2.12
2019-01-10T04:24:38.106Z,2.04
2019-01-10T04:27:08.370Z,1.36
2019-01-10T04:29:37.675Z,1.51
2019-01-10T04:32:09.945Z,1.71
2019-01-10T04:34:39.071Z,1.75
2019-01-10T04:37:08.182Z,1.88
2019-01-10T04:39:37.638Z,2.00
2019-01-10T04:42:06.706Z,2.18
2019-01-10T04:44:44.183Z,1.74
2019-01-10T04:47:13.476Z,1.83
2019-01-10T04:49:44.038Z,1.74
2019-01-10T04:52:15.287Z,2.14
2019-01-10T04:54:47.415Z,1.96
2019-01-10T04:57:25.521Z,2.53
2019-01-10T04:59:54.694Z,2.08
2019-01-10T05:02:23.810Z,2.18
2019-01-10T05:04:54.306Z,2.21
2019-01-10T05:07:23.442Z,2.47
2019-01-10T05:09:59.927Z,2.73
2019-01-10T05:12:33.507Z,2.78
2019-01-10T05:15:04.590Z,2.33
2019-01-10T05:17:35.015Z,2.50
2019-01-10T05:20:06.820Z,2.23
2019-01-10T05:22:36.022Z,2.09
2019-01-10T05:25:05.400Z,2.19
2019-01-10T05:27:34.571Z,2.07
2019-01-10T05:30:05.395Z,2.22
2019-01-10T05:32:34.607Z,0.29
2019-01-10T05:35:05.019Z,2.32
2019-01-10T05:37:35.620Z,1.95
2019-01-10T05:40:09.586Z,2.05
2019-01-10T05:42:39.019Z,2.42
2019-01-10T05:45:12.901Z,2.68
2019-01-10T05:47:43.320Z,2.43
2019-01-10T05:50:14.196Z,1.98
2019-01-10T05:52:44.713Z,2.32
2019-01-10T05:55:19.906Z,0.13
2019-01-10T05:57:51.849Z,2.19
2019-01-10T06:00:26.217Z,2.41
2019-01-10T06:02:55.468Z,1.72
2019-01-10T06:05:30.148Z,1.75
2019-01-10T06:07:59.454Z,2.07
2019-01-10T06:10:30.753Z,2.15
2019-01-10T06:13:02.493Z,2.37
2019-01-10T06:15:31.768Z,2.06
2019-01-10T06:18:08.450Z,1.76
2019-01-10T06:20:37.948Z,1.79
2019-01-10T06:23:10.730Z,2.01
2019-01-10T06:25:39.813Z,2.01
2019-01-10T06:28:09.324Z,1.94
2019-01-10T06:30:38.418Z,1.60
2019-01-10T06:33:10.269Z,1.95
2019-01-10T06:35:40.499Z,1.80
2019-01-10T06:38:13.067Z,2.16
2019-01-10T06:40:42.703Z,2.39
2019-01-10T06:43:15.047Z,2.09
2019-01-10T06:45:44.278Z,2.07
2019-01-10T06:48:13.712Z,2.47
2019-01-10T06:50:44.603Z,2.89
2019-01-10T06:53:13.917Z,3.15
2019-01-10T06:55:44.744Z,2.33
2019-01-10T06:58:16.562Z,3.16
2019-01-10T07:00:46.004Z,2.86
2019-01-10T07:03:21.755Z,3.03
2019-01-10T07:05:51.072Z,3.60
2019-01-10T07:08:25.764Z,2.70
2019-01-10T07:10:58.764Z,2.50
2019-01-10T07:13:36.019Z,2.42
2019-01-10T07:16:10.168Z,3.05
2019-01-10T07:18:40.007Z,2.43
2019-01-10T07:21:11.221Z,2.89
2019-01-10T07:23:46.308Z,2.68
2019-01-10T07:26:19.411Z,1.06
2019-01-10T07:28:49.226Z,2.57
2019-01-10T07:31:28.804Z,2.32
2019-01-10T07:34:01.954Z,2.09
2019-01-10T07:36:31.476Z,1.94
2019-01-10T07:39:00.759Z,2.72
2019-01-10T07:41:30.976Z,2.54
2019-01-10T07:44:00.185Z,2.06
2019-01-10T07:46:31.050Z,2.09
2019-01-10T07:49:00.417Z,2.48
2019-01-10T07:51:45.691Z,2.32
2019-01-10T07:54:15.431Z,2.61
2019-01-10T07:56:44.616Z,2.55
2019-01-10T07:59:18.985Z,2.31
2019-01-10T08:01:48.680Z,2.68
2019-01-10T08:04:19.385Z,2.38
2019-01-10T08:06:49.773Z,2.33
2019-01-10T08:09:20.059Z,2.42
2019-01-10T08:12:00.193Z,2.52
2019-01-10T08:14:24.113Z,0.38
2019-01-10T08:16:55.887Z,2.42
2019-01-10T08:19:27.325Z,2.27
2019-01-10T08:21:59.808Z,3.05
2019-01-10T08:24:28.974Z,2.83
2019-01-10T08:26:58.430Z,2.59
2019-01-10T08:29:27.881Z,2.36
2019-01-10T08:32:04.157Z,2.93
2019-01-10T08:34:37.210Z,3.15
2019-01-10T08:37:06.308Z,3.05
2019-01-10T08:39:42.303Z,2.90
2019-01-10T08:42:13.200Z,3.19
2019-01-10T08:44:45.617Z,3.27
2019-01-10T08:47:17.944Z,3.48
2019-01-10T08:49:47.111Z,3.78
2019-01-10T08:52:18.770Z,3.75
2019-01-10T08:54:47.982Z,3.08
2019-01-10T08:57:18.719Z,3.18
2019-01-10T08:59:51.657Z,3.06
2019-01-10T09:02:21.418Z,3.62
2019-01-10T09:04:50.492Z,3.64
2019-01-10T09:07:21.468Z,2.82
2019-01-10T09:09:50.579Z,2.98
2019-01-10T09:12:21.679Z,3.29
2019-01-10T09:14:52.509Z,4.03
2019-01-10T09:17:23.636Z,3.16
2019-01-10T09:19:55.802Z,3.57
2019-01-10T09:22:27.960Z,3.45
2019-01-10T09:24:59.424Z,3.55
2019-01-10T09:27:28.773Z,4.16
2019-01-10T09:29:59.029Z,4.02
2019-01-10T09:32:28.748Z,3.39
2019-01-10T09:34:58.249Z,3.98
2019-01-10T09:37:27.555Z,3.38
2019-01-10T09:40:17.636Z,3.37
2019-01-10T09:42:47.007Z,3.52
2019-01-10T09:45:18.805Z,3.24
2019-01-10T09:48:01.931Z,3.27
2019-01-10T09:50:33.925Z,3.33
2019-01-10T09:53:06.353Z,3.74
2019-01-10T09:55:36.714Z,3.73
2019-01-10T09:58:10.571Z,3.10
2019-01-10T10:00:41.489Z,3.76
2019-01-10T10:03:11.990Z,3.29
2019-01-10T10:05:46.661Z,3.49
2019-01-10T10:08:15.987Z,3.01
2019-01-10T10:10:45.053Z,3.15
2019-01-10T10:13:20.248Z,3.07
2019-01-10T10:15:52.654Z,3.28
2019-01-10T10:18:20.168Z,3.28
2019-01-10T10:20:49.367Z,3.53
2019-01-10T10:23:26.733Z,3.43
2019-01-10T10:25:52.598Z,2.97
2019-01-10T10:28:25.731Z,3.93
2019-01-10T10:30:55.349Z,4.14
2019-01-10T10:33:24.768Z,3.82
2019-01-10T10:35:56.705Z,4.16
2019-01-10T10:38:28.245Z,3.40
2019-01-10T10:40:58.950Z,3.50
2019-01-10T10:43:28.563Z,3.23
2019-01-10T10:46:01.766Z,2.77
2019-01-10T10:48:29.818Z,2.99
2019-01-10T10:50:58.882Z,2.65
2019-01-10T10:53:28.236Z,2.52
2019-01-10T10:55:58.999Z,2.63
2019-01-10T10:58:28.580Z,2.82
2019-01-10T11:01:03.620Z,3.30
2019-01-10T11:03:34.504Z,2.97
2019-01-10T11:06:05.741Z,3.37
2019-01-10T11:08:42.216Z,2.97
2019-01-10T11:11:14.164Z,3.44
2019-01-10T11:13:43.400Z,1.00
2019-01-10T11:16:13.063Z,2.91
2019-01-10T11:18:45.516Z,3.13
2019-01-10T11:21:15.948Z,3.09
2019-01-10T11:23:47.118Z,3.28
2019-01-10T11:26:16.319Z,3.09
2019-01-10T11:28:45.776Z,3.41
2019-01-10T11:31:14.951Z,3.24
2019-01-10T11:33:44.158Z,3.97
2019-01-10T11:36:14.531Z,3.77
2019-01-10T11:38:45.589Z,3.77
2019-01-10T11:41:16.355Z,3.53
2019-01-10T11:43:48.614Z,3.26
2019-01-10T11:46:20.656Z,3.13
2019-01-10T11:48:51.290Z,4.14
2019-01-10T11:51:20.817Z,4.33
2019-01-10T11:53:52.449Z,4.00
2019-01-10T11:56:21.628Z,3.58
2019-01-10T11:58:51.025Z,3.94
2019-01-10T12:01:20.209Z,3.76
2019-01-10T12:03:56.925Z,3.63
2019-01-10T12:06:25.782Z,3.42
2019-01-10T12:08:54.867Z,3.77
2019-01-10T12:11:23.986Z,-4.89
2019-01-10T12:13:56.011Z,3.72
2019-01-10T12:16:28.644Z,3.54
2019-01-10T12:18:59.637Z,3.61
2019-01-10T12:21:31.386Z,3.92
2019-01-10T12:24:01.674Z,3.70
2019-01-10T12:26:34.738Z,3.75
2019-01-10T12:29:04.105Z,3.91
2019-01-10T12:31:38.442Z,3.81
2019-01-10T12:34:07.579Z,3.69
2019-01-10T12:36:38.054Z,3.91
2019-01-10T12:39:09.075Z,3.70
2019-01-10T12:41:41.191Z,3.38
2019-01-10T12:44:10.497Z,3.25
2019-01-10T12:46:42.630Z,3.15
2019-01-10T12:49:12.082Z,3.66
2019-01-10T12:51:41.183Z,3.44
2019-01-10T12:54:10.302Z,3.28
2019-01-10T12:56:39.414Z,3.60
2019-01-10T12:59:09.554Z,3.00
2019-01-10T13:01:39.140Z,3.80
2019-01-10T13:04:08.411Z,3.91
2019-01-10T13:06:37.624Z,3.95
2019-01-10T13:09:10.082Z,3.74
2019-01-10T13:11:41.883Z,3.21
2019-01-10T13:14:10.994Z,3.38
2019-01-10T13:16:46.655Z,4.19
2019-01-10T13:19:17.067Z,3.92
2019-01-10T13:21:48.853Z,4.31
2019-01-10T13:24:18.804Z,4.24
2019-01-10T13:26:47.971Z,4.14
2019-01-10T13:29:18.301Z,3.80
2019-01-10T13:31:52.156Z,3.49
2019-01-10T13:34:21.351Z,3.15
2019-01-10T13:36:50.456Z,2.89
2019-01-10T13:39:20.984Z,3.29
2019-01-10T13:41:53.074Z,-0.01
2019-01-10T13:44:23.407Z,3.67
2019-01-10T13:46:55.818Z,3.04
2019-01-10T13:49:23.610Z,3.14
2019-01-10T13:51:52.821Z,3.31
2019-01-10T13:54:24.446Z,3.58
2019-01-10T13:56:53.871Z,3.27
2019-01-10T13:59:26.134Z,3.11
2019-01-10T14:01:55.409Z,3.46
2019-01-10T14:04:24.752Z,3.78
2019-01-10T14:06:53.859Z,3.99
2019-01-10T14:09:23.300Z,3.65
2019-01-10T14:11:52.921Z,3.58
2019-01-10T14:14:22.520Z,4.07
2019-01-10T14:16:55.373Z,3.93
2019-01-10T14:19:28.568Z,4.48
2019-01-10T14:22:01.138Z,3.74
2019-01-10T14:24:34.225Z,3.73
2019-01-10T14:27:05.329Z,4.10
2019-01-10T14:29:34.425Z,4.42
2019-01-10T14:32:03.512Z,4.47
2019-01-10T14:34:32.711Z,3.96
2019-01-10T14:37:01.819Z,3.85
2019-01-10T14:39:31.340Z,3.51
2019-01-10T14:42:05.035Z,3.34
2019-01-10T14:44:35.901Z,3.76
2019-01-10T14:47:07.743Z,4.19
2019-01-10T14:49:38.804Z,3.59
2019-01-10T14:52:11.963Z,3.90
2019-01-10T14:54:41.108Z,4.04
2019-01-10T14:57:11.370Z,3.39
2019-01-10T14:59:43.554Z,2.87
2019-01-10T15:02:12.654Z,3.06
2019-01-10T15:04:44.453Z,3.11
2019-01-10T15:07:16.104Z,2.89
2019-01-10T15:09:45.938Z,2.74
2019-01-10T15:12:15.379Z,2.81
2019-01-10T15:14:44.539Z,3.04
2019-01-10T15:17:15.900Z,2.96
2019-01-10T15:19:47.524Z,2.82
2019-01-10T15:22:19.620Z,2.95
2019-01-10T15:24:48.799Z,3.45
2019-01-10T15:27:17.929Z,-6.11
2019-01-10T15:29:48.377Z,3.43
2019-01-10T15:32:20.942Z,3.12
2019-01-10T15:34:50.064Z,3.51
2019-01-10T15:37:23.774Z,3.37
2019-01-10T15:39:53.105Z,3.30
2019-01-10T15:42:22.288Z,3.91
2019-01-10T15:44:55.148Z,4.02
2019-01-10T15:47:24.357Z,3.51
2019-01-10T15:49:53.843Z,3.29
2019-01-10T15:52:22.996Z,3.53
2019-01-10T15:54:54.562Z,3.58
2019-01-10T15:57:25.055Z,3.52
2019-01-10T15:59:56.102Z,3.97
2019-01-10T16:02:26.964Z,3.71
2019-01-10T16:04:56.301Z,3.47
2019-01-10T16:07:27.764Z,3.34
2019-01-10T16:09:59.931Z,3.80
2019-01-10T16:12:29.450Z,3.21
2019-01-10T16:15:01.061Z,3.64
2019-01-10T16:17:30.180Z,3.09
2019-01-10T16:19:59.676Z,3.14
2019-01-10T16:22:29.663Z,3.52
2019-01-10T16:24:58.801Z,3.71
2019-01-10T16:27:30.350Z,3.99
2019-01-10T16:29:59.435Z,4.16
2019-01-10T16:32:29.439Z,4.16
2019-01-10T16:34:58.616Z,4.02
2019-01-10T16:37:27.674Z,3.95
2019-01-10T16:39:58.221Z,4.02
2019-01-10T16:42:27.299Z,4.27
2019-01-10T16:44:58.971Z,4.66
2019-01-10T16:47:31.600Z,4.55
2019-01-10T16:49:58.883Z,4.45
2019-01-10T16:52:27.967Z,4.53
2019-01-10T16:54:57.338Z,4.27
2019-01-10T16:57:29.473Z,4.96
2019-01-10T16:59:59.505Z,4.78
2019-01-10T17:02:36.158Z,4.73
2019-01-10T17:05:02.743Z,4.19
2019-01-10T17:07:34.309Z,4.40
2019-01-10T17:10:03.454Z,4.23
2019-01-10T17:12:33.060Z,4.50
2019-01-10T17:15:06.440Z,4.63
2019-01-10T17:17:44.321Z,4.85
2019-01-10T17:20:27.853Z,4.85
2019-01-10T17:22:58.693Z,5.00
2019-01-10T17:25:28.202Z,4.74
2019-01-10T17:28:01.490Z,4.23
2019-01-10T17:30:31.394Z,3.68
2019-01-10T17:33:02.436Z,3.37
2019-01-10T17:35:33.328Z,3.73
2019-01-10T17:38:03.571Z,4.09
2019-01-10T17:40:34.884Z,3.67
2019-01-10T17:43:07.604Z,3.65
2019-01-10T17:45:43.265Z,4.20
2019-01-10T17:48:14.574Z,3.29
2019-01-10T17:50:43.694Z,3.06
2019-01-10T17:53:13.914Z,3.87
2019-01-10T17:55:44.850Z,3.39
2019-01-10T17:58:13.933Z,3.71
2019-01-10T18:00:43.170Z,2.95
2019-01-10T18:03:12.453Z,2.80
2019-01-10T18:05:44.507Z,3.42
2019-01-10T18:08:16.540Z,3.05
2019-01-10T18:10:48.750Z,3.51
2019-01-10T18:13:18.243Z,3.69
2019-01-10T18:15:48.453Z,3.89
2019-01-10T18:18:20.936Z,3.37
2019-01-10T18:20:50.053Z,3.41
2019-01-10T18:23:19.228Z,3.31
2019-01-10T18:25:48.328Z,-2.77
2019-01-10T18:28:17.494Z,3.53
2019-01-10T18:30:46.599Z,3.00
2019-01-10T18:33:18.987Z,2.84
2019-01-10T18:35:50.505Z,2.81
2019-01-10T18:38:20.636Z,3.01
2019-01-10T18:40:52.104Z,3.03
2019-01-10T18:43:25.584Z,3.18
2019-01-10T18:45:54.754Z,3.12
2019-01-10T18:48:23.964Z,2.72
2019-01-10T18:50:54.859Z,2.41
2019-01-10T18:53:24.004Z,2.34
2019-01-10T18:55:53.896Z,2.68
2019-01-10T18:58:25.785Z,2.50
2019-01-10T19:00:58.613Z,2.75
2019-01-10T19:03:28.097Z,2.63
2019-01-10T19:05:57.285Z,2.52
2019-01-10T19:08:26.379Z,-6.69
2019-01-10T19:10:58.182Z,3.52
2019-01-10T19:13:35.395Z,4.10
2019-01-10T19:16:04.502Z,4.74
2019-01-10T19:18:33.596Z,4.73
2019-01-10T19:21:03.044Z,4.67
2019-01-10T19:23:32.341Z,4.56
2019-01-10T19:26:03.140Z,4.48
2019-01-10T19:28:32.236Z,4.73
2019-01-10T19:31:01.372Z,4.85
2019-01-10T19:33:35.771Z,5.01
2019-01-10T19:36:05.071Z,4.91
2019-01-10T19:38:34.212Z,4.97
2019-01-10T19:41:03.323Z,5.27
2019-01-10T19:43:32.412Z,5.50
2019-01-10T19:46:01.652Z,5.66
2019-01-10T19:48:30.782Z,5.79
2019-01-10T19:51:01.091Z,5.89
2019-01-10T19:53:33.383Z,6.01
2019-01-10T19:56:02.482Z,5.50
2019-01-10T19:58:33.287Z,5.11
2019-01-10T20:01:07.108Z,5.42
2019-01-10T20:03:38.414Z,5.60
2019-01-10T20:06:08.892Z,5.56
2019-01-10T20:08:37.982Z,5.83
2019-01-10T20:11:08.928Z,6.04
2019-01-10T20:13:38.338Z,3.93
2019-01-10T20:16:07.708Z,5.47
2019-01-10T20:18:37.065Z,5.81
2019-01-10T20:21:06.354Z,6.16
2019-01-10T20:23:36.822Z,5.83
2019-01-10T20:26:09.246Z,5.93
2019-01-10T20:28:42.120Z,5.94
2019-01-10T20:31:11.625Z,6.28
2019-01-10T20:33:41.423Z,6.26
2019-01-10T20:36:10.708Z,6.36
2019-01-10T20:38:41.580Z,5.93
2019-01-10T20:41:12.426Z,6.07
2019-01-10T20:43:41.584Z,6.46
2019-01-10T20:46:10.673Z,6.47
2019-01-10T20:48:39.822Z,6.25
2019-01-10T20:51:09.099Z,6.23
2019-01-10T20:53:40.845Z,6.53
2019-01-10T20:56:09.996Z,6.56
2019-01-10T20:58:39.278Z,6.47
2019-01-10T21:01:13.013Z,6.69
2019-01-10T21:03:42.150Z,6.67
2019-01-10T21:06:12.399Z,6.17
2019-01-10T21:08:41.459Z,5.90
2019-01-10T21:11:10.656Z,5.92
2019-01-10T21:13:41.315Z,5.48
2019-01-10T21:16:10.914Z,5.96
2019-01-10T21:18:41.752Z,5.87
2019-01-10T21:21:13.935Z,5.88
2019-01-10T21:23:43.027Z,5.95
2019-01-10T21:26:14.035Z,5.92
2019-01-10T21:28:43.139Z,5.90
2019-01-10T21:31:15.068Z,5.52
2019-01-10T21:33:45.684Z,5.79
2019-01-10T21:36:14.882Z,5.53
2019-01-10T21:38:43.991Z,5.66
2019-01-10T21:41:13.184Z,5.18
2019-01-10T21:43:47.164Z,4.94
2019-01-10T21:46:16.358Z,4.74
2019-01-10T21:48:47.027Z,4.52
2019-01-10T21:51:16.253Z,4.73
2019-01-10T21:53:45.357Z,3.99
2019-01-10T21:56:14.454Z,4.96
2019-01-10T21:58:44.988Z,4.81
2019-01-10T22:01:17.019Z,4.88
2019-01-10T22:03:51.103Z,4.70
2019-01-10T22:06:22.946Z,4.72
2019-01-10T22:08:57.126Z,4.52
2019-01-10T22:11:26.318Z,4.38
2019-01-10T22:13:57.861Z,5.15
2019-01-10T22:16:26.961Z,5.18
2019-01-10T22:18:56.069Z,5.02
2019-01-10T22:21:31.356Z,4.69
2019-01-10T22:24:02.042Z,4.61
2019-01-10T22:26:31.128Z,4.59
2019-01-10T22:29:00.309Z,5.00
2019-01-10T22:31:29.407Z,5.07
2019-01-10T22:33:58.509Z,5.07
2019-01-10T22:36:31.429Z,5.34
2019-01-10T22:39:00.549Z,5.41
2019-01-10T22:41:30.309Z,5.29
2019-01-10T22:44:02.528Z,5.63
2019-01-10T22:46:31.676Z,5.77
2019-01-10T22:49:02.655Z,5.22
2019-01-10T22:51:31.760Z,5.41
2019-01-10T22:54:00.824Z,4.53
2019-01-10T22:56:31.991Z,5.11
2019-01-10T22:59:00.874Z,4.96
2019-01-10T23:01:51.927Z,4.91
2019-01-10T23:04:33.250Z,4.26
2019-01-10T23:07:10.156Z,4.66
2019-01-10T23:09:39.342Z,5.06
2019-01-10T23:12:13.411Z,4.05
2019-01-10T23:14:44.152Z,3.03
2019-01-10T23:17:15.853Z,3.68
2019-01-10T23:19:57.410Z,4.27
2019-01-10T23:22:26.514Z,3.55
2019-01-10T23:25:02.221Z,2.73
2019-01-10T23:27:33.596Z,2.42
2019-01-10T23:30:02.697Z,2.27
2019-01-10T23:32:31.935Z,2.96
2019-01-10T23:35:01.050Z,2.43
2019-01-10T23:37:32.251Z,2.30
2019-01-10T23:40:01.347Z,2.32
2019-01-10T23:42:32.122Z,2.48
2019-01-10T23:45:01.205Z,1.93
2019-01-10T23:47:30.343Z,3.62
2019-01-10T23:49:59.541Z,4.21
2019-01-10T23:52:31.141Z,4.16
2019-01-10T23:55:00.255Z,3.58
2019-01-10T23:57:29.953Z,3.59
